Time;durP1;ratioP1;P1;durP2;ratioP2;P2;SDS_P1;SDS_P2;PMS_P1;PMS_P2;Temp;Humidity;BMP_temperature;BMP_pressure;BME280_temperature;BME280_humidity;BME280_pressure;Samples;Min_cycle;Max_cycle;Signal;HPM_P1;HPM_P2
2023/04/13 00:00:29;;;;;;;1.00;0.40;;;7.50;99.90;;;;;;5071547;28;20419;-71
2023/04/13 00:02:55;;;;;;;1.00;0.47;;;7.40;99.90;;;;;;5069870;28;20813;-73
2023/04/13 00:05:22;;;;;;;0.60;0.40;;;7.50;99.90;;;;;;5071175;28;20410;-73
2023/04/13 00:07:48;;;;;;;1.67;0.60;;;7.40;99.90;;;;;;5069336;28;20463;-73
2023/04/13 00:10:14;;;;;;;1.83;0.63;;;7.40;99.90;;;;;;5070976;28;20534;-73
2023/04/13 00:12:41;;;;;;;0.70;0.40;;;7.40;99.90;;;;;;5070447;28;20824;-72
2023/04/13 00:15:08;;;;;;;1.13;0.50;;;7.40;99.90;;;;;;5070614;28;20743;-72
2023/04/13 00:17:34;;;;;;;0.70;0.40;;;7.40;99.90;;;;;;5085823;28;20413;-73
2023/04/13 00:20:07;;;;;;;0.77;0.50;;;7.40;99.90;;;;;;5069017;28;20516;-73
2023/04/13 00:22:33;;;;;;;3.23;0.80;;;7.40;99.90;;;;;;5070360;28;20307;-73
2023/04/13 00:24:58;;;;;;;0.70;0.50;;;7.50;99.90;;;;;;5070011;28;20497;-73
2023/04/13 00:27:26;;;;;;;0.60;0.40;;;7.50;99.90;;;;;;5070138;28;20456;-72
2023/04/13 00:29:55;;;;;;;1.90;0.50;;;7.50;99.90;;;;;;5068941;28;20183;-73
2023/04/13 00:32:21;;;;;;;1.63;0.50;;;7.60;99.90;;;;;;5070117;28;21084;-73
2023/04/13 00:34:46;;;;;;;1.00;0.57;;;7.50;99.90;;;;;;5070133;28;20482;-73
2023/04/13 00:37:13;;;;;;;1.10;0.60;;;7.50;99.90;;;;;;5069967;28;20906;-73
2023/04/13 00:39:39;;;;;;;0.63;0.37;;;7.50;99.90;;;;;;5069904;28;20946;-72
2023/04/13 00:42:08;;;;;;;1.00;0.50;;;7.50;99.90;;;;;;5085184;28;20540;-73
2023/04/13 00:44:35;;;;;;;1.17;0.40;;;7.50;99.90;;;;;;5068267;28;20469;-71
2023/04/13 00:47:04;;;;;;;1.00;0.53;;;7.50;99.90;;;;;;5069862;28;20505;-73
2023/04/13 00:49:34;;;;;;;1.00;0.50;;;7.40;99.90;;;;;;5069778;28;20433;-72
2023/04/13 00:52:01;;;;;;;2.33;0.80;;;7.50;99.90;;;;;;5069727;28;20437;-73
2023/04/13 00:54:28;;;;;;;0.70;0.40;;;7.50;99.90;;;;;;5069588;28;20452;-72
2023/04/13 00:56:57;;;;;;;1.20;0.57;;;7.60;99.90;;;;;;5069720;28;20517;-73
2023/04/13 00:59:26;;;;;;;1.73;0.70;;;7.60;99.90;;;;;;5068565;28;20912;-72
2023/04/13 01:01:55;;;;;;;2.03;0.70;;;7.60;99.90;;;;;;5069598;28;20421;-73
2023/04/13 01:04:26;;;;;;;2.63;0.50;;;7.60;99.90;;;;;;5084851;28;20472;-72
2023/04/13 01:07:36;;;;;;;2.10;0.50;;;7.70;99.90;;;;;;5069074;28;20499;-73
2023/04/13 01:10:02;;;;;;;2.20;0.60;;;7.60;99.90;;;;;;5066657;28;20425;-73
2023/04/13 01:12:58;;;;;;;3.50;0.63;;;7.70;99.90;;;;;;5068789;28;20443;-73
2023/04/13 01:15:26;;;;;;;0.80;0.40;;;7.60;99.90;;;;;;5069426;28;20182;-73
2023/04/13 01:18:03;;;;;;;7.17;0.70;;;7.60;99.90;;;;;;5067807;28;20418;-72
2023/04/13 01:20:31;;;;;;;1.00;0.70;;;7.60;99.90;;;;;;5069188;28;20413;-73
2023/04/13 01:23:00;;;;;;;1.73;0.50;;;7.50;99.90;;;;;;5068984;28;20505;-73
2023/04/13 01:25:58;;;;;;;0.97;0.50;;;7.50;99.90;;;;;;5069194;28;20424;-73
2023/04/13 01:28:24;;;;;;;0.80;0.50;;;7.60;99.90;;;;;;5069037;28;20417;-73
2023/04/13 01:30:52;;;;;;;0.80;0.50;;;7.60;99.90;;;;;;5051078;28;20515;-73
2023/04/13 01:33:19;;;;;;;1.47;0.50;;;7.60;99.90;;;;;;5067336;28;20450;-73
2023/04/13 01:35:46;;;;;;;1.37;0.40;;;7.60;99.90;;;;;;5069054;28;20948;-73
2023/04/13 01:38:13;;;;;;;1.10;0.50;;;7.60;99.90;;;;;;5068933;28;20499;-73
2023/04/13 01:40:43;;;;;;;0.90;0.50;;;7.60;99.90;;;;;;5067444;28;20465;-73
2023/04/13 01:43:09;;;;;;;0.80;0.40;;;7.50;99.90;;;;;;5051354;28;20465;-73
2023/04/13 01:45:59;;;;;;;0.97;0.50;;;7.50;99.90;;;;;;5068926;28;20459;-72
2023/04/13 01:48:47;;;;;;;1.57;0.40;;;7.50;99.90;;;;;;5067492;28;20848;-73
2023/04/13 01:51:17;;;;;;;0.90;0.40;;;7.40;99.90;;;;;;5068693;28;20409;-73
2023/04/13 01:53:52;;;;;;;0.90;0.43;;;7.40;99.90;;;;;;5068595;28;20443;-73
2023/04/13 01:56:18;;;;;;;0.70;0.50;;;7.30;99.90;;;;;;5069051;28;20408;-72
2023/04/13 01:58:48;;;;;;;3.13;0.63;;;7.30;99.90;;;;;;5068652;28;20842;-73
2023/04/13 02:01:14;;;;;;;5.60;0.60;;;7.20;99.90;;;;;;5067232;28;21034;-73
2023/04/13 02:03:42;;;;;;;2.30;0.60;;;7.20;99.90;;;;;;5083546;28;21003;-73
2023/04/13 02:06:08;;;;;;;1.50;0.43;;;7.20;99.90;;;;;;5067002;28;20433;-73
2023/04/13 02:08:35;;;;;;;4.43;0.63;;;7.20;99.90;;;;;;5068463;28;20929;-72
2023/04/13 02:11:02;;;;;;;3.50;0.60;;;7.20;99.90;;;;;;5068545;28;20420;-73
2023/04/13 02:13:31;;;;;;;1.00;0.60;;;7.20;99.90;;;;;;5068538;28;20596;-72
2023/04/13 02:15:57;;;;;;;4.60;0.53;;;7.20;99.90;;;;;;5068393;28;20529;-73
2023/04/13 02:18:23;;;;;;;0.77;0.50;;;7.10;99.90;;;;;;5067627;28;20417;-72
2023/04/13 02:21:00;;;;;;;1.73;0.40;;;7.10;99.90;;;;;;5068429;28;20420;-72
2023/04/13 02:23:26;;;;;;;3.90;0.50;;;7.10;99.90;;;;;;5068198;28;20468;-71
2023/04/13 02:25:51;;;;;;;1.57;0.63;;;7.10;99.90;;;;;;5068319;28;20451;-73
2023/04/13 02:28:17;;;;;;;1.37;0.60;;;7.10;99.90;;;;;;5068508;28;20183;-73
2023/04/13 02:30:43;;;;;;;1.03;0.50;;;7.00;99.90;;;;;;5068221;28;20187;-74
2023/04/13 02:33:09;;;;;;;1.63;0.70;;;6.90;99.90;;;;;;5068265;28;20441;-72
2023/04/13 02:35:37;;;;;;;1.00;0.50;;;6.80;99.90;;;;;;5066706;28;20445;-73
2023/04/13 02:38:06;;;;;;;0.70;0.50;;;6.70;99.90;;;;;;5068237;28;20190;-72
2023/04/13 02:40:31;;;;;;;1.07;0.60;;;6.70;99.90;;;;;;5068074;28;20446;-73
2023/04/13 02:42:58;;;;;;;1.53;0.47;;;6.80;99.90;;;;;;5068010;28;20467;-72
2023/04/13 02:45:25;;;;;;;2.20;0.40;;;6.80;99.90;;;;;;5066753;28;20289;-72
2023/04/13 02:47:51;;;;;;;1.33;0.60;;;6.70;99.90;;;;;;5083411;28;20426;-73
2023/04/13 02:50:17;;;;;;;4.50;0.70;;;6.60;99.90;;;;;;5049908;28;20427;-72
2023/04/13 02:52:43;;;;;;;0.70;0.40;;;6.60;99.90;;;;;;5066660;28;20198;-72
2023/04/13 02:55:09;;;;;;;1.10;0.50;;;6.70;99.90;;;;;;5066417;28;20425;-73
2023/04/13 02:57:35;;;;;;;1.10;0.40;;;6.60;99.90;;;;;;5068073;28;20428;-73
2023/04/13 03:00:01;;;;;;;1.73;0.50;;;6.60;99.90;;;;;;5067983;28;20436;-72
2023/04/13 03:02:28;;;;;;;2.60;0.50;;;6.60;99.90;;;;;;5083145;28;20238;-72
2023/04/13 03:04:55;;;;;;;0.70;0.40;;;6.70;99.90;;;;;;5067951;28;20214;-73
2023/04/13 03:07:21;;;;;;;0.93;0.47;;;6.60;99.90;;;;;;5066501;28;20778;-73
2023/04/13 03:09:47;;;;;;;0.80;0.40;;;6.60;99.90;;;;;;5067987;28;20781;-72
2023/04/13 03:12:12;;;;;;;0.90;0.47;;;6.40;99.90;;;;;;5067959;28;20441;-73
2023/04/13 03:14:38;;;;;;;0.80;0.60;;;6.40;99.90;;;;;;5066606;28;20187;-73
2023/04/13 03:17:05;;;;;;;0.97;0.60;;;6.40;99.90;;;;;;5067994;28;20299;-72
2023/04/13 03:19:31;;;;;;;1.77;0.60;;;6.40;99.90;;;;;;5068099;28;20183;-73
2023/04/13 03:21:56;;;;;;;2.00;0.50;;;6.30;99.90;;;;;;5068064;28;20437;-72
2023/04/13 03:24:26;;;;;;;1.93;1.00;;;6.40;99.90;;;;;;5068287;28;20223;-73
2023/04/13 03:26:54;;;;;;;1.90;0.60;;;6.50;99.90;;;;;;5068479;28;20175;-72
2023/04/13 03:29:19;;;;;;;2.70;0.57;;;6.50;99.90;;;;;;5068136;28;20434;-72
2023/04/13 03:31:45;;;;;;;3.70;0.87;;;6.60;99.90;;;;;;5070754;28;20417;-72
2023/04/13 03:34:11;;;;;;;2.60;0.60;;;6.50;99.90;;;;;;5071971;28;20701;-72
2023/04/13 03:36:36;;;;;;;2.03;0.50;;;6.60;99.90;;;;;;5054055;28;20288;-72
2023/04/13 03:39:04;;;;;;;2.60;0.70;;;6.40;99.90;;;;;;5071977;28;20240;-73
2023/04/13 03:41:29;;;;;;;1.43;0.43;;;6.50;99.90;;;;;;5072031;28;20425;-73
2023/04/13 03:43:55;;;;;;;1.87;0.70;;;6.50;99.90;;;;;;5071401;28;20852;-73
2023/04/13 03:46:21;;;;;;;0.90;0.80;;;6.60;99.90;;;;;;5071476;28;20650;-72
2023/04/13 03:48:46;;;;;;;0.70;0.50;;;6.50;99.90;;;;;;5071325;28;20218;-72
2023/04/13 03:51:12;;;;;;;2.07;0.53;;;6.50;99.90;;;;;;5069947;28;20229;-72
2023/04/13 03:53:37;;;;;;;0.70;0.60;;;6.50;99.90;;;;;;5070875;28;20206;-71
2023/04/13 03:56:04;;;;;;;3.43;0.73;;;6.60;99.90;;;;;;5071263;28;20655;-72
2023/04/13 03:58:30;;;;;;;0.70;0.40;;;6.50;99.90;;;;;;5071312;28;20187;-72
2023/04/13 04:00:56;;;;;;;2.70;0.60;;;6.60;99.90;;;;;;5071044;28;20420;-72
2023/04/13 04:03:24;;;;;;;1.03;0.67;;;6.60;99.90;;;;;;5070984;28;20268;-72
2023/04/13 04:05:50;;;;;;;2.10;0.50;;;6.60;99.90;;;;;;5072773;28;20424;-72
2023/04/13 04:08:16;;;;;;;2.23;0.60;;;6.50;99.90;;;;;;5074202;28;20787;-72
2023/04/13 04:10:41;;;;;;;1.60;0.60;;;6.50;99.90;;;;;;5073074;28;20440;-73
2023/04/13 04:13:07;;;;;;;1.87;0.60;;;6.50;99.90;;;;;;5070286;28;20211;-72
2023/04/13 04:15:32;;;;;;;0.70;0.40;;;6.60;99.90;;;;;;5071757;28;20717;-72
2023/04/13 04:17:59;;;;;;;1.77;0.47;;;6.70;99.90;;;;;;5070430;28;20187;-73
2023/04/13 04:20:25;;;;;;;1.30;0.80;;;6.70;99.90;;;;;;5071292;28;20270;-71
2023/04/13 04:22:51;;;;;;;2.43;0.83;;;6.70;99.90;;;;;;5071051;28;20570;-74
2023/04/13 04:25:21;;;;;;;4.70;0.90;;;6.80;99.90;;;;;;5071138;28;20504;-73
2023/04/13 04:27:56;;;;;;;0.80;0.50;;;6.80;99.90;;;;;;5070827;28;20421;-73
2023/04/13 04:30:23;;;;;;;1.87;0.73;;;6.90;99.90;;;;;;5072229;28;20428;-73
2023/04/13 04:32:53;;;;;;;3.83;1.00;;;6.90;99.90;;;;;;5071533;28;20441;-73
2023/04/13 04:35:20;;;;;;;1.63;0.83;;;7.00;99.90;;;;;;5071809;28;20425;-73
2023/04/13 04:37:48;;;;;;;3.37;0.70;;;6.90;99.90;;;;;;5086999;28;20433;-72
2023/04/13 04:40:14;;;;;;;2.50;0.60;;;7.00;99.90;;;;;;5069403;28;20453;-72
2023/04/13 04:42:41;;;;;;;3.80;0.90;;;7.00;99.90;;;;;;5070517;28;20702;-71
2023/04/13 04:45:07;;;;;;;8.80;0.97;;;7.00;99.90;;;;;;5070368;28;20468;-72
2023/04/13 04:47:40;;;;;;;3.23;0.87;;;7.00;99.90;;;;;;5070504;28;20419;-72
2023/04/13 04:50:07;;;;;;;1.50;0.70;;;7.00;99.90;;;;;;5085141;28;20414;-72
2023/04/13 04:52:33;;;;;;;4.40;1.33;;;7.00;99.90;;;;;;5066980;28;20450;-72
2023/04/13 04:54:58;;;;;;;2.53;0.70;;;7.00;99.80;;;;;;5068382;28;20800;-72
2023/04/13 04:57:24;;;;;;;4.40;0.83;;;6.90;99.90;;;;;;5067050;28;20810;-71
2023/04/13 04:59:50;;;;;;;2.60;1.00;;;7.00;99.90;;;;;;5068319;28;20183;-72
2023/04/13 05:02:16;;;;;;;3.17;0.80;;;7.00;99.90;;;;;;5067124;28;20214;-72
2023/04/13 05:04:42;;;;;;;5.40;1.10;;;7.10;99.90;;;;;;5068688;28;20461;-71
2023/04/13 05:07:09;;;;;;;3.60;0.80;;;7.10;99.90;;;;;;5068447;28;20535;-72
2023/04/13 05:09:36;;;;;;;4.83;1.23;;;7.10;99.90;;;;;;5083727;28;20191;-72
2023/04/13 05:12:03;;;;;;;2.77;0.93;;;7.10;99.90;;;;;;5068659;28;20421;-71
2023/04/13 05:14:28;;;;;;;2.93;0.73;;;7.20;99.90;;;;;;5067111;28;20425;-71
2023/04/13 05:16:54;;;;;;;4.07;1.57;;;7.20;99.50;;;;;;5068298;28;20790;-72
2023/04/13 05:19:20;;;;;;;1.70;0.90;;;7.20;99.90;;;;;;5067997;28;20189;-70
2023/04/13 05:21:45;;;;;;;5.03;0.80;;;7.30;99.90;;;;;;5067733;28;20216;-72
2023/04/13 05:24:11;;;;;;;7.23;0.70;;;7.30;99.90;;;;;;5066201;28;20207;-72
2023/04/13 05:26:36;;;;;;;7.80;0.90;;;7.30;99.60;;;;;;5067749;28;20175;-72
2023/04/13 05:29:03;;;;;;;4.60;1.20;;;7.20;99.80;;;;;;5066417;28;20185;-72
2023/04/13 05:31:29;;;;;;;3.33;0.80;;;7.20;99.90;;;;;;5067770;28;20182;-70
2023/04/13 05:33:54;;;;;;;5.77;1.20;;;7.20;99.90;;;;;;5067869;28;20437;-72
2023/04/13 05:36:20;;;;;;;4.43;0.93;;;7.10;98.10;;;;;;5068109;28;20256;-72
2023/04/13 05:38:46;;;;;;;5.30;1.07;;;7.10;98.40;;;;;;5068105;28;20182;-72
2023/04/13 05:41:11;;;;;;;3.43;0.90;;;7.20;99.90;;;;;;5066708;28;20739;-72
2023/04/13 05:43:37;;;;;;;8.53;1.07;;;7.20;98.90;;;;;;5068067;28;20285;-72
2023/04/13 05:46:03;;;;;;;1.20;0.57;;;7.30;99.90;;;;;;5068262;28;20627;-72
2023/04/13 05:48:29;;;;;;;6.10;1.03;;;7.30;99.90;;;;;;5068177;28;20730;-71
2023/04/13 05:50:58;;;;;;;6.30;0.87;;;7.30;99.90;;;;;;5066929;28;20187;-70
2023/04/13 05:53:24;;;;;;;13.13;0.90;;;7.30;99.60;;;;;;5068018;28;20483;-72
2023/04/13 05:55:51;;;;;;;4.03;0.80;;;7.40;99.90;;;;;;5068386;28;20921;-72
2023/04/13 05:58:17;;;;;;;3.27;0.90;;;7.30;99.20;;;;;;5068154;28;20417;-72
2023/04/13 06:00:43;;;;;;;4.60;0.87;;;7.10;99.90;;;;;;5083542;28;20468;-72
2023/04/13 06:03:09;;;;;;;2.80;0.90;;;7.20;99.90;;;;;;5067828;28;20493;-72
2023/04/13 06:05:36;;;;;;;6.10;1.23;;;7.30;99.90;;;;;;5067902;28;20179;-72
2023/04/13 06:08:02;;;;;;;3.33;0.70;;;7.30;99.90;;;;;;5067897;28;20515;-72
2023/04/13 06:10:27;;;;;;;3.20;0.80;;;7.20;99.90;;;;;;5067724;28;20520;-72
2023/04/13 06:12:53;;;;;;;3.40;0.67;;;7.20;99.90;;;;;;5067411;28;20429;-72
2023/04/13 06:15:19;;;;;;;2.40;1.03;;;7.10;99.90;;;;;;5067426;28;20207;-71
2023/04/13 06:17:45;;;;;;;3.83;0.80;;;7.10;99.90;;;;;;5067388;28;20935;-71
2023/04/13 06:20:11;;;;;;;5.73;0.60;;;7.10;99.90;;;;;;5065922;28;20414;-72
2023/04/13 06:22:37;;;;;;;3.60;1.27;;;7.20;99.90;;;;;;5067512;28;20627;-71
2023/04/13 06:25:03;;;;;;;3.43;0.67;;;7.20;99.90;;;;;;5067016;28;20774;-70
2023/04/13 06:27:31;;;;;;;6.50;0.93;;;7.10;99.90;;;;;;5067012;28;20171;-71
2023/04/13 06:29:57;;;;;;;5.27;0.80;;;6.90;99.90;;;;;;5066805;28;20484;-71
2023/04/13 06:32:22;;;;;;;4.13;0.70;;;6.90;99.90;;;;;;5082028;28;20525;-72
2023/04/13 06:34:48;;;;;;;4.03;1.07;;;6.80;99.90;;;;;;5066872;28;20179;-72
2023/04/13 06:37:14;;;;;;;3.90;0.97;;;6.90;99.90;;;;;;5066845;28;20195;-71
2023/04/13 06:39:40;;;;;;;1.83;1.03;;;6.90;99.90;;;;;;5066927;28;20464;-71
2023/04/13 06:42:06;;;;;;;7.17;1.20;;;7.00;99.90;;;;;;5065388;28;20877;-71
2023/04/13 06:44:31;;;;;;;3.57;0.93;;;7.00;99.90;;;;;;5066725;28;20318;-71
2023/04/13 06:46:57;;;;;;;1.30;0.70;;;7.10;99.90;;;;;;5066735;28;20576;-72
2023/04/13 06:49:22;;;;;;;6.47;0.83;;;7.10;99.90;;;;;;5066861;28;20183;-71
2023/04/13 06:51:48;;;;;;;5.07;1.50;;;7.10;99.90;;;;;;5066682;28;20559;-72
2023/04/13 06:54:14;;;;;;;1.40;0.80;;;7.00;99.90;;;;;;5066727;28;20255;-71
2023/04/13 06:56:40;;;;;;;5.07;1.10;;;7.10;99.90;;;;;;5066603;28;20274;-71
2023/04/13 06:59:05;;;;;;;3.80;0.70;;;6.90;99.90;;;;;;5064803;28;20417;-71
2023/04/13 07:01:31;;;;;;;3.97;0.93;;;6.80;99.90;;;;;;5066805;28;20421;-71
2023/04/13 07:03:57;;;;;;;3.90;0.67;;;7.00;99.90;;;;;;5067030;28;20211;-71
2023/04/13 07:06:23;;;;;;;5.93;1.00;;;6.90;99.90;;;;;;5070367;28;20526;-72
2023/04/13 07:08:49;;;;;;;2.50;0.70;;;7.00;99.90;;;;;;5070399;28;20489;-71
2023/04/13 07:11:15;;;;;;;5.10;0.93;;;7.10;99.90;;;;;;5070332;28;20418;-71
2023/04/13 07:13:40;;;;;;;1.83;0.90;;;7.20;99.90;;;;;;5070200;28;20445;-72
2023/04/13 07:16:07;;;;;;;3.50;0.90;;;7.00;99.90;;;;;;5068691;28;20237;-71
2023/04/13 07:18:34;;;;;;;6.63;1.27;;;7.10;99.90;;;;;;5070124;28;20189;-71
2023/04/13 07:21:00;;;;;;;2.63;0.87;;;7.00;99.90;;;;;;5069947;28;20437;-70
2023/04/13 07:23:26;;;;;;;8.20;1.10;;;7.00;99.90;;;;;;5070019;28;20472;-71
2023/04/13 07:25:51;;;;;;;3.13;0.90;;;7.00;99.90;;;;;;5070107;28;20417;-70
2023/04/13 07:28:17;;;;;;;5.47;0.77;;;7.00;99.90;;;;;;5070153;28;20181;-71
2023/04/13 07:30:43;;;;;;;3.20;0.70;;;7.10;99.90;;;;;;5070145;28;20175;-71
2023/04/13 07:33:09;;;;;;;3.00;0.70;;;7.00;99.90;;;;;;5069899;28;20306;-70
2023/04/13 07:35:38;;;;;;;3.33;0.90;;;6.90;99.90;;;;;;5069957;28;21158;-71
2023/04/13 07:38:04;;;;;;;6.30;1.00;;;7.00;99.90;;;;;;5069793;28;20262;-71
2023/04/13 07:40:30;;;;;;;4.60;0.80;;;7.00;99.90;;;;;;5068104;28;20445;-71
2023/04/13 07:42:56;;;;;;;7.33;0.80;;;7.20;99.90;;;;;;5067950;28;20453;-71
2023/04/13 07:45:22;;;;;;;2.37;0.83;;;7.20;99.90;;;;;;5069442;28;20464;-71
2023/04/13 07:47:48;;;;;;;6.40;1.10;;;7.40;99.90;;;;;;5068188;28;20182;-71
2023/04/13 07:50:15;;;;;;;4.50;0.90;;;7.60;99.90;;;;;;5068104;28;20187;-71
2023/04/13 07:52:41;;;;;;;5.10;1.43;;;7.60;99.90;;;;;;5069506;28;20452;-71
2023/04/13 07:55:07;;;;;;;5.23;1.43;;;7.70;99.90;;;;;;5084959;28;20424;-71
2023/04/13 07:57:33;;;;;;;9.33;1.23;;;7.70;99.90;;;;;;5069608;28;20421;-71
2023/04/13 07:59:59;;;;;;;0.83;0.83;;;7.50;99.90;;;;;;5069507;28;20424;-71
2023/04/13 08:02:24;;;;;;;5.23;0.90;;;7.40;99.90;;;;;;5067929;28;20832;-71
2023/04/13 08:04:51;;;;;;;5.57;1.17;;;7.50;99.90;;;;;;5069302;28;20302;-71
2023/04/13 08:07:17;;;;;;;5.30;1.27;;;7.80;99.90;;;;;;5069694;28;20198;-71
2023/04/13 08:09:45;;;;;;;3.53;0.90;;;8.00;99.90;;;;;;5069343;28;20420;-71
2023/04/13 08:12:10;;;;;;;2.50;1.03;;;8.10;99.90;;;;;;5069226;28;20469;-71
2023/04/13 08:14:36;;;;;;;7.67;1.60;;;8.20;99.90;;;;;;5069395;28;21004;-71
2023/04/13 08:17:05;;;;;;;4.70;0.80;;;8.30;99.90;;;;;;5068074;28;20190;-71
2023/04/13 08:19:31;;;;;;;8.70;1.70;;;8.30;99.90;;;;;;5084386;28;20183;-71
2023/04/13 08:21:57;;;;;;;8.53;1.17;;;8.30;99.90;;;;;;5067342;28;20942;-71
2023/04/13 08:24:24;;;;;;;1.60;1.03;;;8.40;99.90;;;;;;5084127;28;20633;-71
2023/04/13 08:26:51;;;;;;;7.10;1.53;;;8.50;99.90;;;;;;5067521;28;21271;-71
2023/04/13 08:29:16;;;;;;;5.47;1.43;;;8.60;99.90;;;;;;5069037;28;20413;-71
2023/04/13 08:31:42;;;;;;;8.77;1.30;;;8.70;99.90;;;;;;5067457;28;20447;-71
2023/04/13 08:34:09;;;;;;;4.53;1.23;;;8.90;98.20;;;;;;5067316;28;20202;-71
2023/04/13 08:36:36;;;;;;;2.40;0.80;;;9.10;98.00;;;;;;5068869;28;20601;-71
2023/04/13 08:39:01;;;;;;;6.10;2.03;;;9.30;97.10;;;;;;5068747;28;20417;-71
2023/04/13 08:41:31;;;;;;;6.67;1.20;;;9.50;95.50;;;;;;5066984;28;20421;-71
2023/04/13 08:43:56;;;;;;;5.40;1.77;;;9.60;95.40;;;;;;5068594;28;20256;-72
2023/04/13 08:46:22;;;;;;;6.57;1.87;;;9.70;96.10;;;;;;5068695;28;20425;-71
2023/04/13 08:48:50;;;;;;;3.43;1.13;;;9.80;96.00;;;;;;5067211;28;20647;-71
2023/04/13 08:51:19;;;;;;;3.83;1.03;;;9.70;95.30;;;;;;5068474;28;20924;-71
2023/04/13 08:53:45;;;;;;;5.00;1.17;;;9.80;95.40;;;;;;5068568;28;20813;-71
2023/04/13 08:56:14;;;;;;;5.47;1.60;;;9.70;94.70;;;;;;5067080;28;20479;-71
2023/04/13 08:58:42;;;;;;;7.07;1.60;;;9.70;94.40;;;;;;5068414;28;20418;-71
2023/04/13 09:01:14;;;;;;;2.30;0.90;;;9.80;94.60;;;;;;5068417;28;20424;-71
2023/04/13 09:04:07;;;;;;;4.83;1.23;;;9.70;92.60;;;;;;5066794;28;20465;-71
2023/04/13 09:06:36;;;;;;;6.13;1.13;;;9.80;92.60;;;;;;5067775;28;20429;-71
2023/04/13 09:09:13;;;;;;;6.00;1.70;;;10.00;93.80;;;;;;5068121;28;20948;-71
2023/04/13 09:11:40;;;;;;;5.67;1.37;;;9.90;91.60;;;;;;5083507;28;20448;-72
2023/04/13 09:14:06;;;;;;;4.03;1.07;;;10.40;91.90;;;;;;5067913;28;20447;-71
2023/04/13 09:16:42;;;;;;;3.87;1.30;;;10.90;92.30;;;;;;5066643;28;20424;-71
2023/04/13 09:19:08;;;;;;;4.57;1.00;;;11.40;90.00;;;;;;5068081;28;20237;-72
2023/04/13 09:21:41;;;;;;;5.93;1.33;;;12.10;86.80;;;;;;5068405;28;20530;-72
2023/04/13 09:24:08;;;;;;;4.03;1.47;;;12.50;87.00;;;;;;5067051;28;20473;-71
2023/04/13 09:26:44;;;;;;;4.70;1.23;;;12.70;84.60;;;;;;5074369;28;20408;-72
2023/04/13 09:29:15;;;;;;;7.10;1.53;;;12.90;85.40;;;;;;5070030;28;20402;-71
2023/04/13 09:31:42;;;;;;;6.50;1.37;;;13.30;80.00;;;;;;5067984;28;20403;-71
2023/04/13 09:34:08;;;;;;;5.50;1.23;;;14.30;81.30;;;;;;5067891;28;20508;-71
2023/04/13 09:36:34;;;;;;;3.33;0.93;;;14.90;80.20;;;;;;5067817;28;20423;-71
2023/04/13 09:39:00;;;;;;;7.90;1.63;;;13.90;73.30;;;;;;5067919;28;21155;-70
2023/04/13 09:41:39;;;;;;;6.83;1.53;;;13.90;77.20;;;;;;5067730;28;20702;-71
2023/04/13 09:44:19;;;;;;;2.50;1.10;;;14.50;77.10;;;;;;5067560;28;20222;-71
2023/04/13 09:46:58;;;;;;;5.37;1.73;;;14.20;73.80;;;;;;5067866;28;20407;-71
2023/04/13 09:49:24;;;;;;;5.70;1.33;;;13.30;77.00;;;;;;5068341;28;20889;-69
2023/04/13 09:51:50;;;;;;;4.47;1.30;;;12.80;79.30;;;;;;5068163;28;20528;-70
2023/04/13 09:54:22;;;;;;;9.67;1.10;;;12.50;82.10;;;;;;5068430;28;20495;-70
2023/04/13 09:56:52;;;;;;;4.07;1.33;;;12.60;79.80;;;;;;5068227;28;20184;-70
2023/04/13 09:59:20;;;;;;;4.90;1.63;;;12.70;79.20;;;;;;5068482;28;20870;-70
2023/04/13 10:01:47;;;;;;;4.40;1.47;;;12.50;79.20;;;;;;5068075;28;20416;-71
2023/04/13 10:04:12;;;;;;;9.00;1.43;;;12.70;80.00;;;;;;5083456;28;20583;-71
2023/04/13 10:06:39;;;;;;;7.37;1.50;;;12.80;78.90;;;;;;5068165;28;20547;-71
2023/04/13 10:09:06;;;;;;;3.27;1.13;;;13.40;78.00;;;;;;5067885;28;20190;-70
2023/04/13 10:11:45;;;;;;;5.47;1.23;;;14.40;77.20;;;;;;5067680;28;20407;-69
2023/04/13 10:14:16;;;;;;;2.63;1.00;;;15.20;72.30;;;;;;5082894;28;20514;-70
2023/04/13 10:16:57;;;;;;;5.37;1.10;;;15.80;70.00;;;;;;5067818;28;20932;-69
2023/04/13 10:19:26;;;;;;;5.03;1.50;;;16.00;66.60;;;;;;5068060;28;20504;-70
2023/04/13 10:21:54;;;;;;;4.97;1.33;;;15.50;67.70;;;;;;5067954;28;20777;-71
2023/04/13 10:24:20;;;;;;;2.40;1.00;;;14.90;67.10;;;;;;5067602;28;21316;-71
2023/04/13 10:26:46;;;;;;;2.93;1.10;;;15.10;68.60;;;;;;5066050;28;20566;-71
2023/04/13 10:29:13;;;;;;;3.07;1.57;;;14.60;68.00;;;;;;5067482;28;20504;-71
2023/04/13 10:31:46;;;;;;;7.10;1.20;;;14.30;68.60;;;;;;5067157;28;20260;-71
2023/04/13 10:34:34;;;;;;;4.40;1.10;;;13.70;70.00;;;;;;5067018;28;20417;-71
2023/04/13 10:37:06;;;;;;;2.37;1.30;;;13.20;70.50;;;;;;5065398;28;20427;-71
2023/04/13 10:39:34;;;;;;;7.23;1.27;;;12.70;73.20;;;;;;5066625;28;20471;-71
2023/04/13 10:42:04;;;;;;;4.70;1.00;;;12.40;75.20;;;;;;5069792;28;20491;-71
2023/04/13 10:44:46;;;;;;;4.13;1.10;;;12.00;76.30;;;;;;5070977;28;20454;-71
2023/04/13 10:47:13;;;;;;;4.40;1.10;;;11.50;80.10;;;;;;5069724;28;20422;-71
2023/04/13 10:49:39;;;;;;;8.90;1.27;;;10.80;91.70;;;;;;5071073;28;20452;-71
2023/04/13 10:52:05;;;;;;;5.57;1.93;;;10.40;99.90;;;;;;5069659;28;20967;-71
2023/04/13 10:54:33;;;;;;;9.40;1.50;;;10.00;99.90;;;;;;5071383;28;20426;-70
2023/04/13 10:57:01;;;;;;;5.90;1.50;;;10.00;99.90;;;;;;5071307;28;20888;-70
2023/04/13 10:59:43;;;;;;;2.70;1.00;;;9.80;99.90;;;;;;5071378;28;20977;-71
2023/04/13 11:02:14;;;;;;;4.93;1.10;;;9.60;99.90;;;;;;5071342;28;20441;-71
2023/04/13 11:04:41;;;;;;;5.83;1.27;;;9.50;99.90;;;;;;5071241;28;20461;-71
2023/04/13 11:07:11;;;;;;;4.40;1.20;;;9.70;99.90;;;;;;5086529;28;20426;-71
2023/04/13 11:09:38;;;;;;;2.60;0.90;;;10.30;99.90;;;;;;5071323;28;20409;-71
2023/04/13 11:12:06;;;;;;;5.53;1.00;;;10.40;96.00;;;;;;5069810;28;20412;-70
2023/04/13 11:14:34;;;;;;;2.27;1.20;;;11.00;97.90;;;;;;5071000;28;20410;-70
2023/04/13 11:17:00;;;;;;;3.63;0.93;;;11.40;95.80;;;;;;5070681;28;20460;-70
2023/04/13 11:19:26;;;;;;;6.73;1.47;;;11.60;96.70;;;;;;5069492;28;20431;-70
2023/04/13 11:21:54;;;;;;;4.63;2.00;;;11.30;92.90;;;;;;5071023;28;20414;-70
2023/04/13 11:24:25;;;;;;;4.37;1.60;;;11.50;95.70;;;;;;5069472;28;20216;-70
2023/04/13 11:26:51;;;;;;;8.03;1.60;;;11.70;91.90;;;;;;5070719;28;20426;-70
2023/04/13 11:29:17;;;;;;;13.40;3.27;;;11.90;94.70;;;;;;5069298;28;20428;-71
2023/04/13 11:31:43;;;;;;;7.07;1.80;;;11.70;93.40;;;;;;5085684;28;20436;-70
2023/04/13 11:34:12;;;;;;;5.60;2.23;;;11.60;93.70;;;;;;5070404;28;20566;-70
2023/04/13 11:36:39;;;;;;;9.17;1.40;;;12.00;96.80;;;;;;5070255;28;20192;-70
2023/04/13 11:39:09;;;;;;;6.30;1.63;;;12.40;94.70;;;;;;5070151;28;20422;-70
2023/04/13 11:41:43;;;;;;;4.37;1.17;;;13.00;96.00;;;;;;5070044;28;20510;-69
2023/04/13 11:44:12;;;;;;;4.20;1.40;;;13.00;94.40;;;;;;5070020;28;20880;-70
2023/04/13 11:46:38;;;;;;;4.67;1.40;;;12.90;91.50;;;;;;5069919;28;20498;-70
2023/04/13 11:49:03;;;;;;;3.60;1.33;;;12.60;89.10;;;;;;5069856;28;20519;-70
2023/04/13 11:51:30;;;;;;;5.67;1.13;;;12.10;89.50;;;;;;5069599;28;20180;-70
2023/04/13 11:53:57;;;;;;;6.13;1.47;;;11.60;91.00;;;;;;5068437;28;20197;-70
2023/04/13 11:56:24;;;;;;;7.70;1.60;;;11.60;89.70;;;;;;5069971;28;20424;-70
2023/04/13 11:58:51;;;;;;;4.90;1.40;;;11.90;92.20;;;;;;5069768;28;20512;-70
2023/04/13 12:01:20;;;;;;;3.97;1.23;;;12.20;90.80;;;;;;5068137;28;21315;-70
2023/04/13 12:03:46;;;;;;;3.50;1.53;;;12.10;90.60;;;;;;5069235;28;20471;-70
2023/04/13 12:06:13;;;;;;;6.47;1.30;;;12.30;86.00;;;;;;5069287;28;20977;-70
2023/04/13 12:08:39;;;;;;;9.57;2.23;;;12.30;86.60;;;;;;5069287;28;20678;-70
2023/04/13 12:11:05;;;;;;;14.03;6.20;;;12.50;86.10;;;;;;5069002;28;20418;-70
2023/04/13 12:13:47;;;;;;;6.20;1.80;;;13.00;88.40;;;;;;5067431;28;20409;-70
2023/04/13 12:16:25;;;;;;;2.53;1.07;;;13.10;85.10;;;;;;5069317;28;20525;-70
2023/04/13 12:18:51;;;;;;;8.83;2.10;;;13.40;89.80;;;;;;5069109;28;20799;-70
2023/04/13 12:21:18;;;;;;;10.73;1.30;;;13.10;77.80;;;;;;5067901;28;20424;-70
2023/04/13 12:23:54;;;;;;;6.10;1.40;;;13.70;82.10;;;;;;5069352;28;20217;-71
2023/04/13 12:26:23;;;;;;;5.30;1.60;;;14.10;84.60;;;;;;5069269;28;20412;-70
2023/04/13 12:28:57;;;;;;;4.57;1.30;;;14.20;83.70;;;;;;5069171;28;20468;-70
2023/04/13 12:31:23;;;;;;;5.83;1.43;;;14.10;80.90;;;;;;5069056;28;20941;-70
2023/04/13 12:33:50;;;;;;;5.53;1.37;;;13.80;81.50;;;;;;5068747;28;20452;-70
2023/04/13 12:36:16;;;;;;;5.87;1.60;;;13.60;80.60;;;;;;5068698;28;20211;-70
2023/04/13 12:38:42;;;;;;;7.50;1.20;;;13.40;81.80;;;;;;5069122;28;20950;-71
2023/04/13 12:41:09;;;;;;;5.00;1.00;;;13.10;82.20;;;;;;5068602;28;20441;-70
2023/04/13 12:43:35;;;;;;;4.70;1.23;;;12.90;82.50;;;;;;5068128;28;20244;-70
2023/04/13 12:46:00;;;;;;;7.40;1.43;;;12.70;88.30;;;;;;5068316;28;20441;-70
2023/04/13 12:48:26;;;;;;;5.63;1.17;;;12.30;92.10;;;;;;5083592;28;20444;-70
2023/04/13 12:50:53;;;;;;;10.07;1.50;;;11.80;94.50;;;;;;5068293;28;20870;-69
2023/04/13 12:53:18;;;;;;;6.30;1.67;;;11.50;95.90;;;;;;5068164;28;20749;-70
2023/04/13 12:55:44;;;;;;;5.63;1.27;;;11.10;99.00;;;;;;5068206;28;20449;-70